Time;durP1;ratioP1;P1;durP2;ratioP2;P2;SDS_P1;SDS_P2;PMS_P1;PMS_P2;Temp;Humidity;BMP_temperature;BMP_pressure;BME280_temperature;BME280_humidity;BME280_pressure;Samples;Min_cycle;Max_cycle;Signal;HPM_P1;HPM_P2
2021/07/12 00:02:00;;;;;;;7.00;3.33;;;24.10;55.20;;;;;;4945985;28;20575;-48
2021/07/12 00:04:25;;;;;;;4.07;3.13;;;24.00;55.10;;;;;;4948931;28;20207;-48
2021/07/12 00:06:51;;;;;;;3.10;2.33;;;24.00;55.40;;;;;;4948053;28;20500;-48
2021/07/12 00:09:17;;;;;;;3.43;2.90;;;24.00;55.30;;;;;;4950336;28;20624;-47
2021/07/12 00:11:43;;;;;;;3.07;2.70;;;24.00;55.20;;;;;;4950126;28;20279;-49
2021/07/12 00:14:09;;;;;;;3.03;2.77;;;23.90;55.20;;;;;;4952170;29;20199;-46
2021/07/12 00:16:35;;;;;;;3.90;2.90;;;23.60;55.80;;;;;;4948332;28;20274;-47
2021/07/12 00:19:01;;;;;;;3.80;3.37;;;23.60;55.90;;;;;;4950973;28;20577;-46
2021/07/12 00:21:26;;;;;;;3.97;3.27;;;23.40;57.00;;;;;;4951968;28;20215;-46
2021/07/12 00:23:52;;;;;;;2.97;2.77;;;23.10;56.60;;;;;;4948724;28;20631;-46
2021/07/12 00:26:18;;;;;;;3.00;2.80;;;22.80;58.00;;;;;;4947881;28;20200;-47
2021/07/12 00:28:44;;;;;;;2.73;2.57;;;22.90;58.00;;;;;;4949288;28;20192;-47
2021/07/12 00:31:10;;;;;;;3.70;2.90;;;23.00;57.40;;;;;;4952073;28;20439;-46
2021/07/12 00:33:36;;;;;;;7.90;2.73;;;22.90;57.50;;;;;;4950981;29;20547;-46
2021/07/12 00:36:02;;;;;;;4.20;3.10;;;23.00;57.70;;;;;;4950654;28;20203;-47
2021/07/12 00:38:28;;;;;;;11.93;4.27;;;22.90;57.20;;;;;;4953811;28;20656;-46
2021/07/12 00:40:54;;;;;;;3.07;2.87;;;22.80;58.20;;;;;;4941254;28;20447;-46
2021/07/12 00:43:19;;;;;;;2.87;2.67;;;23.00;57.80;;;;;;4944994;28;20256;-50
2021/07/12 00:45:46;;;;;;;2.57;2.37;;;23.10;57.60;;;;;;4948383;28;20210;-46
2021/07/12 00:48:12;;;;;;;2.93;2.73;;;23.20;57.40;;;;;;4953679;28;20227;-47
2021/07/12 00:50:40;;;;;;;3.10;2.50;;;23.30;57.10;;;;;;4948267;28;20447;-48
2021/07/12 00:53:06;;;;;;;3.30;3.00;;;23.30;56.90;;;;;;4944572;28;20464;-47
2021/07/12 00:55:47;;;;;;;2.67;2.47;;;23.30;57.00;;;;;;4947739;28;20475;-48
2021/07/12 00:58:18;;;;;;;4.47;2.53;;;23.10;57.10;;;;;;4951275;28;20455;-46
2021/07/12 01:00:45;;;;;;;3.07;2.50;;;23.00;57.90;;;;;;4950234;28;20451;-46
2021/07/12 01:03:12;;;;;;;3.80;2.43;;;23.20;57.90;;;;;;4950049;28;20456;-46
2021/07/12 01:05:39;;;;;;;4.40;2.40;;;23.30;57.30;;;;;;4947078;28;20453;-48
2021/07/12 01:08:05;;;;;;;2.40;2.20;;;23.30;56.90;;;;;;4950307;28;20526;-46
2021/07/12 01:10:32;;;;;;;3.80;2.57;;;23.30;57.10;;;;;;4944902;29;20451;-46
2021/07/12 01:13:18;;;;;;;2.97;2.70;;;23.10;56.70;;;;;;4947823;28;21659;-48
2021/07/12 01:15:50;;;;;;;2.87;2.57;;;23.10;57.40;;;;;;4950584;28;20465;-47
2021/07/12 01:18:56;;;;;;;2.50;2.30;;;23.20;57.20;;;;;;4952661;28;20472;-47
2021/07/12 01:21:59;;;;;;;3.60;2.60;;;23.20;57.20;;;;;;4906351;29;20494;-46
2021/07/12 01:24:44;;;;;;;9.63;3.73;;;23.20;57.10;;;;;;4945501;28;20447;-48
2021/07/12 01:27:37;;;;;;;2.67;2.57;;;23.20;56.90;;;;;;4950822;28;20526;-46
2021/07/12 01:30:06;;;;;;;3.27;2.93;;;23.20;57.20;;;;;;4949561;28;20491;-47
2021/07/12 01:32:44;;;;;;;2.73;2.50;;;23.30;56.80;;;;;;4950684;28;20456;-46
2021/07/12 01:35:20;;;;;;;3.70;2.97;;;23.30;57.20;;;;;;4946135;28;20450;-48
2021/07/12 01:38:01;;;;;;;4.60;2.70;;;23.20;56.40;;;;;;4949296;28;20572;-46
2021/07/12 01:40:55;;;;;;;2.93;2.73;;;23.20;56.70;;;;;;4946813;28;20447;-46
2021/07/12 01:43:41;;;;;;;7.13;3.07;;;23.20;56.80;;;;;;4950335;28;20459;-46
2021/07/12 01:46:31;;;;;;;2.57;2.37;;;23.10;57.10;;;;;;4947678;28;20490;-47
2021/07/12 01:49:32;;;;;;;4.20;2.40;;;23.10;57.30;;;;;;4947024;28;20467;-46
2021/07/12 01:52:11;;;;;;;2.50;2.30;;;23.10;57.10;;;;;;4905018;28;20470;-49
2021/07/12 01:55:00;;;;;;;3.20;2.50;;;23.20;57.10;;;;;;4948111;28;20789;-48
2021/07/12 01:57:33;;;;;;;5.63;2.67;;;23.20;56.60;;;;;;4933712;28;20464;-46
2021/07/12 02:00:11;;;;;;;4.00;2.83;;;23.20;56.70;;;;;;4950024;28;20463;-47
2021/07/12 02:02:40;;;;;;;3.07;2.37;;;23.30;56.80;;;;;;4946215;28;20462;-47
2021/07/12 02:05:09;;;;;;;2.83;2.63;;;23.30;56.50;;;;;;4949419;28;20939;-47
2021/07/12 02:07:37;;;;;;;3.17;2.97;;;23.40;56.40;;;;;;4951399;28;20523;-46
2021/07/12 02:10:04;;;;;;;2.97;2.77;;;23.40;56.00;;;;;;4949433;28;20451;-48
2021/07/12 02:12:33;;;;;;;2.47;2.27;;;23.30;56.40;;;;;;4952245;28;20444;-46
2021/07/12 02:15:01;;;;;;;2.73;2.53;;;23.30;56.30;;;;;;4945809;28;21084;-48
2021/07/12 02:17:28;;;;;;;5.40;2.80;;;23.20;56.10;;;;;;4945698;28;20483;-47
2021/07/12 02:19:55;;;;;;;2.70;2.30;;;23.20;56.40;;;;;;4945611;28;20455;-50
2021/07/12 02:22:21;;;;;;;2.93;2.73;;;23.30;56.30;;;;;;4947228;28;20451;-48
2021/07/12 02:24:48;;;;;;;2.63;2.43;;;23.30;56.30;;;;;;4949166;28;20501;-51
2021/07/12 02:27:20;;;;;;;2.30;2.20;;;23.30;56.20;;;;;;4949594;28;20541;-48
2021/07/12 02:29:46;;;;;;;4.70;2.20;;;23.30;56.10;;;;;;4946552;28;20447;-47
2021/07/12 02:32:12;;;;;;;6.30;2.43;;;23.30;56.00;;;;;;4949570;28;20526;-46
2021/07/12 02:34:38;;;;;;;2.23;1.97;;;23.30;56.00;;;;;;4949400;28;20951;-47
2021/07/12 02:37:04;;;;;;;5.23;2.80;;;23.30;56.10;;;;;;4951428;28;20711;-46
2021/07/12 02:39:32;;;;;;;2.53;2.37;;;23.20;56.10;;;;;;4948598;28;20866;-47
2021/07/12 02:41:58;;;;;;;3.33;2.57;;;23.20;56.10;;;;;;4949388;28;20943;-49
2021/07/12 02:44:25;;;;;;;3.03;2.60;;;23.20;56.30;;;;;;4938657;28;20443;-46
2021/07/12 02:46:51;;;;;;;3.30;2.50;;;23.20;56.10;;;;;;4944531;28;20479;-46
2021/07/12 02:49:17;;;;;;;2.90;2.60;;;23.20;56.20;;;;;;4951053;28;20454;-49
2021/07/12 02:51:46;;;;;;;3.47;2.30;;;23.30;56.30;;;;;;4931813;28;20488;-50
2021/07/12 02:54:18;;;;;;;2.80;2.60;;;23.30;56.20;;;;;;4943365;28;20196;-47
2021/07/12 02:56:44;;;;;;;2.23;2.13;;;23.30;56.10;;;;;;4949036;28;20455;-47
2021/07/12 02:59:10;;;;;;;2.70;2.50;;;23.30;56.00;;;;;;4949118;28;20527;-48
2021/07/12 03:01:35;;;;;;;2.27;2.10;;;23.40;55.80;;;;;;4946444;28;20556;-46
2021/07/12 03:04:01;;;;;;;7.77;2.60;;;23.30;55.90;;;;;;4945331;28;20454;-51
2021/07/12 03:06:36;;;;;;;5.00;2.50;;;23.30;55.80;;;;;;4946984;28;20392;-46
2021/07/12 03:09:04;;;;;;;4.40;2.90;;;23.30;55.70;;;;;;4941677;28;20679;-47
2021/07/12 03:12:02;;;;;;;2.90;2.70;;;23.30;55.60;;;;;;4948940;28;20450;-48
2021/07/12 03:14:55;;;;;;;5.50;2.43;;;23.40;55.50;;;;;;4942526;29;21021;-48
2021/07/12 03:17:23;;;;;;;2.83;2.63;;;23.40;55.40;;;;;;4948393;28;20498;-46
2021/07/12 03:19:52;;;;;;;3.30;2.63;;;23.40;55.40;;;;;;4945511;28;20611;-47
2021/07/12 03:22:18;;;;;;;2.73;2.53;;;23.30;55.40;;;;;;4946366;28;21023;-46
2021/07/12 03:24:46;;;;;;;2.53;2.33;;;23.30;55.40;;;;;;4946273;28;20577;-46
2021/07/12 03:27:17;;;;;;;3.03;2.83;;;23.30;55.40;;;;;;4944494;28;20865;-48
2021/07/12 03:29:44;;;;;;;3.00;2.30;;;23.30;55.40;;;;;;4939544;28;20783;-50
2021/07/12 03:32:11;;;;;;;3.00;2.77;;;23.30;55.30;;;;;;4948247;28;20435;-50
2021/07/12 03:34:38;;;;;;;4.00;2.20;;;23.30;55.20;;;;;;4946266;28;20439;-48
2021/07/12 03:37:04;;;;;;;3.30;2.67;;;23.20;54.70;;;;;;4948165;28;20444;-46
2021/07/12 03:39:31;;;;;;;2.63;2.30;;;23.10;55.50;;;;;;4947171;28;20440;-47
2021/07/12 03:41:57;;;;;;;3.07;2.77;;;23.10;55.50;;;;;;4946590;28;20502;-48
2021/07/12 03:44:24;;;;;;;2.90;2.63;;;23.00;55.60;;;;;;4951801;28;20447;-46
2021/07/12 03:46:49;;;;;;;4.63;3.07;;;23.00;55.60;;;;;;4950403;28;20475;-47
2021/07/12 03:49:17;;;;;;;4.60;2.37;;;23.10;55.90;;;;;;4944408;28;20916;-46
2021/07/12 03:51:48;;;;;;;3.30;2.83;;;23.10;55.80;;;;;;4949400;28;20610;-50
2021/07/12 03:54:18;;;;;;;2.33;2.23;;;23.10;55.60;;;;;;4950084;28;20439;-46
2021/07/12 03:56:44;;;;;;;2.90;2.67;;;23.10;55.40;;;;;;4955364;28;20443;-48
2021/07/12 03:59:09;;;;;;;3.40;2.70;;;23.10;55.20;;;;;;4935003;28;20862;-47
2021/07/12 04:01:36;;;;;;;2.40;2.20;;;23.00;55.50;;;;;;4947662;28;20251;-47
2021/07/12 04:04:01;;;;;;;2.90;2.70;;;23.00;55.80;;;;;;4950408;28;20218;-46
2021/07/12 04:06:29;;;;;;;2.50;2.30;;;23.00;55.90;;;;;;4955342;28;20424;-46
2021/07/12 04:08:55;;;;;;;3.03;2.33;;;22.90;55.90;;;;;;4949605;28;20283;-46
2021/07/12 04:11:22;;;;;;;2.70;2.20;;;22.90;55.80;;;;;;4949508;29;20539;-51
2021/07/12 04:13:49;;;;;;;3.80;2.57;;;23.00;56.00;;;;;;4951031;28;20647;-46
2021/07/12 04:16:15;;;;;;;2.53;2.33;;;22.90;55.90;;;;;;4951728;28;20443;-46
2021/07/12 04:18:40;;;;;;;2.30;2.10;;;22.70;56.20;;;;;;4946249;29;20881;-47
2021/07/12 04:21:06;;;;;;;3.13;2.93;;;22.70;56.60;;;;;;4949972;28;20291;-47
2021/07/12 04:23:32;;;;;;;2.83;2.47;;;22.80;56.50;;;;;;4947646;28;20255;-46
2021/07/12 04:25:57;;;;;;;3.57;3.03;;;22.80;56.50;;;;;;4948983;28;20561;-47
2021/07/12 04:28:23;;;;;;;3.60;2.50;;;22.90;56.30;;;;;;4954257;28;20279;-46
2021/07/12 04:30:49;;;;;;;2.87;2.67;;;22.70;55.30;;;;;;4935537;28;20207;-46
2021/07/12 04:33:14;;;;;;;3.07;2.77;;;22.50;55.80;;;;;;4949593;28;20279;-51
2021/07/12 04:35:40;;;;;;;3.40;2.67;;;22.10;56.40;;;;;;4951118;28;20215;-49
2021/07/12 04:38:05;;;;;;;3.17;2.93;;;21.90;57.20;;;;;;4952994;28;20200;-46
2021/07/12 04:40:31;;;;;;;5.80;3.40;;;21.60;58.10;;;;;;4952026;28;20282;-46
2021/07/12 04:42:57;;;;;;;3.20;2.90;;;21.40;58.90;;;;;;4946866;28;20204;-46
2021/07/12 04:45:26;;;;;;;3.23;2.80;;;21.10;59.90;;;;;;4950478;28;20196;-47
2021/07/12 04:47:51;;;;;;;3.50;3.20;;;20.70;61.10;;;;;;4947497;28;20268;-48
2021/07/12 04:50:17;;;;;;;4.73;2.80;;;20.30;62.50;;;;;;4942084;28;20971;-47
2021/07/12 04:52:43;;;;;;;3.23;2.93;;;20.00;64.10;;;;;;4950026;28;20259;-46
2021/07/12 04:55:09;;;;;;;3.43;3.13;;;19.90;65.20;;;;;;4948752;28;20844;-49
2021/07/12 04:57:35;;;;;;;2.93;2.73;;;20.00;65.50;;;;;;4954615;28;20196;-46
2021/07/12 05:00:02;;;;;;;3.37;3.17;;;19.60;66.20;;;;;;4951151;28;20498;-50
2021/07/12 05:02:28;;;;;;;5.87;3.40;;;19.50;66.90;;;;;;4947809;28;20258;-49
2021/07/12 05:04:54;;;;;;;3.80;3.37;;;19.40;67.70;;;;;;4944589;28;20935;-49
2021/07/12 05:07:19;;;;;;;7.70;3.83;;;19.40;67.80;;;;;;4946636;28;20299;-47
2021/07/12 05:09:45;;;;;;;11.83;3.40;;;19.40;69.30;;;;;;4949902;28;20533;-46
2021/07/12 05:12:12;;;;;;;5.70;2.77;;;19.60;68.70;;;;;;4949991;28;20195;-47
2021/07/12 05:14:42;;;;;;;3.50;2.53;;;19.90;67.90;;;;;;4952485;28;20188;-47
2021/07/12 05:17:11;;;;;;;2.73;2.53;;;20.20;66.50;;;;;;4944780;28;20555;-47
2021/07/12 05:19:36;;;;;;;3.43;2.77;;;20.60;65.10;;;;;;4950842;28;20452;-47
2021/07/12 05:22:02;;;;;;;3.50;2.93;;;20.90;63.90;;;;;;4950558;28;20460;-46
2021/07/12 05:24:28;;;;;;;2.50;2.30;;;20.90;63.60;;;;;;4947717;28;20204;-46
2021/07/12 05:26:54;;;;;;;2.60;2.40;;;20.90;63.60;;;;;;4945347;28;20228;-48
2021/07/12 05:29:19;;;;;;;3.53;3.17;;;21.20;62.90;;;;;;4947051;28;20447;-47
2021/07/12 05:31:46;;;;;;;2.83;2.57;;;21.30;62.40;;;;;;4943607;28;20200;-50
2021/07/12 05:34:12;;;;;;;3.20;2.50;;;21.40;62.40;;;;;;4950841;29;20202;-47
2021/07/12 05:36:38;;;;;;;2.90;2.70;;;21.70;61.70;;;;;;4946112;28;20819;-46
2021/07/12 05:39:04;;;;;;;4.43;3.00;;;21.90;61.10;;;;;;4947781;28;20184;-47
2021/07/12 05:41:29;;;;;;;4.60;2.80;;;22.20;60.30;;;;;;4950470;28;20228;-46
2021/07/12 05:43:55;;;;;;;5.87;3.20;;;22.00;60.80;;;;;;4945376;28;20474;-47
2021/07/12 05:46:21;;;;;;;4.13;2.80;;;21.90;61.30;;;;;;4947027;29;20597;-46
2021/07/12 05:48:47;;;;;;;2.93;2.60;;;21.80;61.70;;;;;;4951311;28;20199;-46
2021/07/12 05:51:12;;;;;;;5.67;3.00;;;21.80;62.70;;;;;;4951097;28;20196;-48
2021/07/12 05:53:38;;;;;;;3.30;3.10;;;21.70;62.50;;;;;;4948938;28;20224;-52
2021/07/12 05:56:04;;;;;;;5.60;2.70;;;21.90;62.50;;;;;;4949834;28;20283;-47
2021/07/12 05:58:30;;;;;;;3.20;2.20;;;21.90;62.10;;;;;;4948130;28;20207;-48
2021/07/12 06:00:55;;;;;;;2.30;2.10;;;22.10;61.70;;;;;;4950526;28;20808;-48
2021/07/12 06:03:22;;;;;;;3.03;2.83;;;22.10;61.40;;;;;;4947788;28;20196;-49
2021/07/12 06:05:47;;;;;;;4.30;2.60;;;22.40;61.10;;;;;;4953207;29;20219;-46
2021/07/12 06:08:13;;;;;;;6.70;3.80;;;22.40;61.40;;;;;;4951349;28;20487;-50
2021/07/12 06:10:39;;;;;;;2.50;2.10;;;22.00;62.50;;;;;;4931304;28;20298;-47
2021/07/12 06:13:04;;;;;;;3.20;2.30;;;22.00;62.50;;;;;;4948253;28;20231;-46
2021/07/12 06:15:30;;;;;;;2.70;2.50;;;21.80;63.40;;;;;;4950704;29;20203;-48
2021/07/12 06:17:56;;;;;;;4.77;2.43;;;21.90;63.20;;;;;;4952343;29;20710;-50
2021/07/12 06:20:22;;;;;;;2.70;2.50;;;21.90;63.50;;;;;;4947414;29;20573;-51
2021/07/12 06:22:49;;;;;;;2.70;2.50;;;21.70;63.80;;;;;;4952566;29;20238;-47
2021/07/12 06:25:17;;;;;;;2.13;1.93;;;21.80;64.40;;;;;;4951598;28;20978;-51
2021/07/12 06:27:42;;;;;;;2.10;2.00;;;21.90;64.20;;;;;;4951055;29;20514;-51
2021/07/12 06:30:09;;;;;;;2.33;2.10;;;22.20;63.50;;;;;;4953521;29;20431;-48
2021/07/12 06:32:35;;;;;;;2.47;2.00;;;22.40;63.40;;;;;;4954317;29;20192;-48
2021/07/12 06:35:01;;;;;;;2.30;2.10;;;22.50;63.30;;;;;;4952232;28;20564;-47
2021/07/12 06:37:27;;;;;;;2.60;2.30;;;22.70;62.80;;;;;;4951659;28;20200;-52
2021/07/12 06:39:52;;;;;;;2.33;2.13;;;23.00;61.90;;;;;;4952291;28;20200;-51
2021/07/12 06:42:18;;;;;;;2.53;2.37;;;23.10;60.60;;;;;;4953027;28;20200;-47
2021/07/12 06:44:43;;;;;;;3.47;2.10;;;22.90;60.70;;;;;;4952918;29;20598;-47
2021/07/12 06:47:09;;;;;;;2.33;2.00;;;23.20;60.80;;;;;;4951728;29;20368;-51
2021/07/12 06:49:34;;;;;;;2.60;1.73;;;23.40;59.60;;;;;;4936487;29;20196;-51
2021/07/12 06:52:00;;;;;;;2.30;2.10;;;23.50;59.80;;;;;;4945716;29;20212;-51
2021/07/12 06:54:26;;;;;;;2.43;2.23;;;23.70;59.00;;;;;;4946763;28;20188;-47
2021/07/12 06:56:51;;;;;;;2.50;2.30;;;23.70;59.10;;;;;;4947432;28;20203;-49
2021/07/12 06:59:17;;;;;;;2.67;2.37;;;23.80;58.50;;;;;;4944708;28;20224;-51
2021/07/12 07:01:44;;;;;;;2.33;2.13;;;23.60;59.20;;;;;;4944060;29;20196;-50
2021/07/12 07:04:10;;;;;;;4.77;2.37;;;23.90;59.20;;;;;;4952471;29;20207;-52
2021/07/12 07:06:36;;;;;;;2.30;1.87;;;24.10;58.90;;;;;;4951137;28;20514;-50
2021/07/12 07:09:02;;;;;;;2.30;1.77;;;24.30;58.50;;;;;;4941854;29;20258;-49
2021/07/12 07:11:27;;;;;;;3.33;2.10;;;24.60;58.00;;;;;;4949109;29;20196;-49
2021/07/12 07:13:53;;;;;;;2.20;2.00;;;24.80;57.60;;;;;;4951827;28;20459;-50
2021/07/12 07:16:19;;;;;;;2.30;2.10;;;25.00;57.60;;;;;;4946932;28;20242;-51
2021/07/12 07:18:44;;;;;;;1.77;1.67;;;25.20;56.40;;;;;;4952349;28;20267;-52
2021/07/12 07:21:10;;;;;;;2.33;2.13;;;25.30;56.00;;;;;;4948010;29;20707;-53
2021/07/12 07:23:35;;;;;;;2.00;1.80;;;25.40;55.70;;;;;;4950343;28;20262;-48
2021/07/12 07:26:01;;;;;;;2.17;2.00;;;25.50;55.60;;;;;;4949384;29;20195;-48
2021/07/12 07:28:27;;;;;;;2.47;2.27;;;25.40;55.60;;;;;;4939592;29;20227;-48
2021/07/12 07:30:53;;;;;;;2.20;2.10;;;25.30;55.50;;;;;;4951567;29;20196;-49
2021/07/12 07:33:18;;;;;;;2.43;2.10;;;25.40;55.60;;;;;;4950968;28;20219;-49
2021/07/12 07:35:44;;;;;;;2.30;2.10;;;25.40;55.70;;;;;;4950877;28;20196;-51
2021/07/12 07:38:09;;;;;;;2.00;1.90;;;25.30;56.00;;;;;;4946288;29;20199;-48
2021/07/12 07:40:36;;;;;;;2.13;1.93;;;25.30;55.80;;;;;;4950872;29;20227;-48
2021/07/12 07:43:03;;;;;;;2.47;1.83;;;25.40;55.70;;;;;;4945546;29;20243;-50
2021/07/12 07:45:31;;;;;;;2.20;2.10;;;25.40;55.20;;;;;;4946457;28;20441;-49
2021/07/12 07:47:57;;;;;;;2.23;2.13;;;25.50;54.60;;;;;;4952774;28;20550;-49
2021/07/12 07:50:23;;;;;;;2.10;1.90;;;25.40;55.40;;;;;;4949415;28;20439;-49
2021/07/12 07:52:50;;;;;;;1.97;1.70;;;25.60;55.40;;;;;;4945412;29;20207;-49
2021/07/12 07:55:16;;;;;;;2.63;1.83;;;25.80;54.80;;;;;;4948862;29;20644;-50
2021/07/12 07:57:42;;;;;;;1.80;1.70;;;26.00;54.70;;;;;;4945420;29;20439;-49
2021/07/12 08:00:11;;;;;;;2.03;1.90;;;26.30;53.70;;;;;;4944415;28;20196;-50
2021/07/12 08:02:37;;;;;;;2.10;1.97;;;26.30;53.20;;;;;;4943362;29;20323;-50
2021/07/12 08:05:04;;;;;;;1.80;1.70;;;26.30;53.20;;;;;;4949890;29;20974;-50
2021/07/12 08:07:29;;;;;;;2.20;2.00;;;26.40;54.00;;;;;;4950990;28;20322;-49
2021/07/12 08:09:55;;;;;;;2.40;2.20;;;26.50;52.60;;;;;;4944864;28;20530;-51
2021/07/12 08:12:20;;;;;;;2.10;2.00;;;26.60;52.00;;;;;;4944992;28;20205;-48
2021/07/12 08:14:46;;;;;;;1.50;1.40;;;26.80;52.90;;;;;;4948429;28;20204;-50
2021/07/12 08:17:12;;;;;;;2.03;1.93;;;26.90;51.60;;;;;;4942578;29;20240;-48
2021/07/12 08:19:38;;;;;;;2.57;1.40;;;27.00;51.20;;;;;;4948929;28;20298;-52
2021/07/12 08:22:04;;;;;;;1.67;1.57;;;26.80;51.70;;;;;;4951560;29;20936;-49
2021/07/12 08:24:30;;;;;;;1.83;1.73;;;26.70;52.00;;;;;;4950577;29;20622;-50
2021/07/12 08:26:56;;;;;;;2.43;2.13;;;26.80;52.30;;;;;;4952015;28;20482;-51
2021/07/12 08:29:21;;;;;;;1.77;1.67;;;27.20;51.40;;;;;;4954299;29;20196;-52
2021/07/12 08:31:47;;;;;;;2.23;1.60;;;27.30;50.60;;;;;;4953865;28;20204;-53
2021/07/12 08:34:13;;;;;;;2.23;1.60;;;27.50;50.20;;;;;;4953728;28;20202;-53
2021/07/12 08:36:39;;;;;;;2.30;2.20;;;27.60;50.10;;;;;;4948213;29;20663;-50
2021/07/12 08:39:05;;;;;;;1.80;1.70;;;27.60;49.80;;;;;;4955642;28;20502;-48
2021/07/12 08:41:32;;;;;;;1.57;1.47;;;27.80;50.00;;;;;;4954747;28;20251;-49
2021/07/12 08:43:58;;;;;;;2.13;1.80;;;28.00;49.70;;;;;;4953239;29;20814;-53
2021/07/12 08:46:23;;;;;;;2.00;1.90;;;27.70;49.80;;;;;;4954773;29;20444;-50
2021/07/12 08:48:49;;;;;;;1.90;1.80;;;27.70;49.60;;;;;;4954383;28;20227;-51
2021/07/12 08:51:15;;;;;;;2.33;1.93;;;27.90;49.60;;;;;;4954658;28;20288;-50
2021/07/12 08:53:41;;;;;;;2.53;1.60;;;28.20;48.70;;;;;;4948730;29;20258;-50
2021/07/12 08:56:06;;;;;;;2.00;1.90;;;28.40;48.70;;;;;;4954216;28;20236;-50
2021/07/12 08:58:34;;;;;;;1.80;1.70;;;28.60;48.10;;;;;;4954800;28;21077;-52
2021/07/12 09:01:03;;;;;;;1.70;1.60;;;28.70;47.70;;;;;;4948647;29;20196;-52
2021/07/12 09:03:31;;;;;;;1.77;1.67;;;28.60;47.30;;;;;;4942804;28;20831;-50
2021/07/12 09:06:00;;;;;;;1.80;1.70;;;28.60;47.10;;;;;;4953306;28;20865;-53
2021/07/12 09:08:36;;;;;;;1.90;1.80;;;28.70;47.60;;;;;;4952816;29;20979;-53
2021/07/12 09:11:14;;;;;;;2.33;1.60;;;29.00;46.80;;;;;;4952199;28;20451;-49
2021/07/12 09:14:12;;;;;;;2.07;1.97;;;29.10;45.50;;;;;;4951021;29;20949;-49
2021/07/12 09:16:42;;;;;;;1.90;1.80;;;29.20;45.40;;;;;;4953708;29;20440;-53
2021/07/12 09:19:29;;;;;;;2.20;1.30;;;29.00;46.10;;;;;;4947137;29;20481;-49
2021/07/12 09:22:21;;;;;;;1.60;1.50;;;29.20;45.50;;;;;;4938628;28;20451;-49
2021/07/12 09:24:52;;;;;;;2.03;1.93;;;29.50;44.90;;;;;;4943907;28;20449;-51
2021/07/12 09:27:24;;;;;;;2.53;1.50;;;29.60;45.40;;;;;;4951877;28;20494;-50
2021/07/12 09:29:55;;;;;;;2.00;1.90;;;29.90;45.20;;;;;;4960726;28;21027;-52
2021/07/12 09:32:23;;;;;;;1.70;1.60;;;30.30;45.80;;;;;;4954298;28;20864;-50
2021/07/12 09:34:55;;;;;;;1.60;1.50;;;30.40;43.80;;;;;;4951948;28;20809;-50
2021/07/12 09:37:20;;;;;;;1.70;1.60;;;30.40;42.80;;;;;;4945949;28;20440;-49
2021/07/12 09:39:48;;;;;;;1.70;1.60;;;30.40;43.40;;;;;;4952676;28;20491;-52
2021/07/12 09:42:21;;;;;;;1.83;1.73;;;30.50;43.00;;;;;;4935475;29;20192;-48
2021/07/12 09:44:58;;;;;;;1.90;1.70;;;30.50;43.40;;;;;;4952730;28;20458;-51
2021/07/12 09:47:27;;;;;;;1.50;1.40;;;30.30;42.30;;;;;;4958200;28;20546;-48
2021/07/12 09:50:02;;;;;;;1.90;1.80;;;30.00;43.00;;;;;;4953726;29;20478;-49
2021/07/12 09:52:40;;;;;;;2.03;1.93;;;30.00;42.80;;;;;;4962818;28;20487;-48
2021/07/12 09:55:07;;;;;;;1.80;1.70;;;30.30;43.20;;;;;;4948187;28;20439;-52
2021/07/12 09:57:33;;;;;;;1.70;1.60;;;30.50;42.30;;;;;;4948366;28;20446;-51
2021/07/12 10:00:10;;;;;;;2.17;1.77;;;30.80;41.60;;;;;;4956647;28;20427;-52
2021/07/12 10:02:37;;;;;;;1.77;1.67;;;31.10;41.30;;;;;;4941370;28;20937;-53
2021/07/12 10:05:16;;;;;;;1.93;1.83;;;31.40;40.70;;;;;;4961438;28;21009;-51
2021/07/12 10:07:42;;;;;;;2.27;1.67;;;31.70;40.40;;;;;;4951323;28;20577;-48
2021/07/12 10:10:16;;;;;;;2.40;2.20;;;31.30;39.80;;;;;;4949615;29;20467;-52
2021/07/12 10:12:43;;;;;;;2.27;2.07;;;31.20;39.80;;;;;;4953837;28;20498;-53
2021/07/12 10:15:10;;;;;;;2.00;1.80;;;31.30;39.30;;;;;;4951379;28;20511;-50
2021/07/12 10:17:36;;;;;;;3.40;2.23;;;30.90;39.90;;;;;;4946360;28;20467;-51
2021/07/12 10:20:04;;;;;;;1.87;1.77;;;31.00;39.30;;;;;;4953984;28;20424;-48
2021/07/12 10:22:34;;;;;;;2.10;1.90;;;30.90;39.10;;;;;;4952591;29;20439;-50
2021/07/12 10:25:10;;;;;;;1.70;1.60;;;30.70;40.30;;;;;;4953897;28;20990;-49
2021/07/12 10:27:51;;;;;;;1.83;1.73;;;30.90;40.60;;;;;;4953756;28;20863;-50
2021/07/12 10:30:36;;;;;;;1.57;1.47;;;31.00;39.80;;;;;;4957911;28;20466;-53
2021/07/12 10:33:06;;;;;;;1.80;1.70;;;31.00;38.20;;;;;;4955615;28;21338;-50
2021/07/12 10:35:44;;;;;;;1.90;1.80;;;30.90;38.80;;;;;;4953295;28;20452;-52
2021/07/12 10:38:12;;;;;;;1.90;1.80;;;31.10;39.30;;;;;;4946744;29;20436;-50
2021/07/12 10:40:45;;;;;;;2.03;1.83;;;31.30;38.30;;;;;;4957289;28;20866;-50
2021/07/12 10:43:11;;;;;;;2.10;2.00;;;31.40;39.60;;;;;;4955413;28;20449;-53
2021/07/12 10:45:41;;;;;;;1.90;1.80;;;31.70;39.10;;;;;;4951640;28;20440;-50
2021/07/12 10:48:12;;;;;;;1.80;1.70;;;32.20;38.40;;;;;;4947347;29;20587;-49
2021/07/12 10:50:50;;;;;;;1.50;1.40;;;32.30;37.80;;;;;;4928990;29;20455;-49
2021/07/12 10:53:15;;;;;;;1.80;1.70;;;31.80;38.40;;;;;;4938949;29;20432;-52
2021/07/12 10:55:43;;;;;;;1.40;1.30;;;31.60;39.60;;;;;;4941534;28;20445;-49
2021/07/12 10:58:18;;;;;;;2.00;1.90;;;32.00;39.40;;;;;;4953186;29;20196;-52
2021/07/12 11:00:45;;;;;;;1.70;1.60;;;31.70;38.60;;;;;;4947479;29;20454;-52
2021/07/12 11:03:39;;;;;;;1.80;1.70;;;32.00;39.30;;;;;;4950640;28;20511;-51
2021/07/12 11:06:20;;;;;;;1.80;1.70;;;32.10;38.60;;;;;;4942362;29;20439;-50
2021/07/12 11:08:59;;;;;;;2.30;2.00;;;32.30;38.00;;;;;;4949119;29;20487;-48
2021/07/12 11:11:24;;;;;;;2.17;1.97;;;32.30;37.10;;;;;;4951511;29;20443;-50
2021/07/12 11:13:52;;;;;;;2.00;1.63;;;32.30;37.10;;;;;;4953126;29;20438;-48
2021/07/12 11:16:23;;;;;;;1.90;1.80;;;32.30;36.30;;;;;;4949450;29;20203;-53
2021/07/12 11:18:50;;;;;;;2.40;1.60;;;32.70;36.60;;;;;;4952416;29;20471;-50
2021/07/12 11:21:36;;;;;;;1.90;1.80;;;32.70;37.20;;;;;;4951744;28;20443;-51
2021/07/12 11:24:17;;;;;;;1.63;1.53;;;32.90;37.00;;;;;;4951753;29;20460;-52
2021/07/12 11:26:45;;;;;;;2.03;1.73;;;32.40;37.30;;;;;;4951772;28;20444;-51
2021/07/12 11:29:16;;;;;;;1.60;1.50;;;32.20;38.20;;;;;;4952427;29;20527;-50
2021/07/12 11:31:51;;;;;;;4.80;2.00;;;32.10;38.40;;;;;;4948643;29;20979;-52
2021/07/12 11:34:30;;;;;;;2.10;2.00;;;31.90;38.30;;;;;;4947653;29;20454;-50
2021/07/12 11:37:05;;;;;;;1.97;1.80;;;32.00;38.60;;;;;;4949551;28;20454;-50
2021/07/12 11:39:33;;;;;;;3.07;1.80;;;32.30;38.30;;;;;;4947702;29;20452;-49
2021/07/12 11:42:12;;;;;;;1.60;1.50;;;32.60;36.90;;;;;;4950963;28;20444;-48
2021/07/12 11:44:38;;;;;;;1.50;1.40;;;32.20;38.00;;;;;;4956983;28;20453;-49
2021/07/12 11:47:21;;;;;;;1.60;1.50;;;32.30;38.00;;;;;;4957872;28;20474;-50
2021/07/12 11:50:17;;;;;;;2.30;1.93;;;32.70;37.40;;;;;;4950974;28;20636;-53
2021/07/12 11:52:49;;;;;;;1.87;1.77;;;33.10;37.10;;;;;;4944738;28;20510;-51
2021/07/12 11:55:18;;;;;;;2.33;1.80;;;33.40;36.00;;;;;;4955962;28;20450;-48
2021/07/12 11:57:46;;;;;;;3.03;1.97;;;33.50;35.00;;;;;;4961980;28;20438;-52
2021/07/12 12:00:33;;;;;;;4.37;2.30;;;33.60;34.30;;;;;;4955091;28;20567;-53
2021/07/12 12:03:11;;;;;;;2.03;1.93;;;33.90;34.70;;;;;;4964265;28;20428;-53
2021/07/12 12:05:38;;;;;;;3.33;1.63;;;33.90;33.90;;;;;;4959432;28;20463;-53
2021/07/12 12:08:05;;;;;;;1.60;1.50;;;33.80;35.40;;;;;;4957489;28;20487;-54
2021/07/12 12:10:39;;;;;;;2.13;2.03;;;34.10;34.80;;;;;;4959656;28;20454;-53
2021/07/12 12:13:16;;;;;;;1.80;1.70;;;34.10;33.80;;;;;;4954980;29;20486;-54
2021/07/12 12:15:44;;;;;;;3.43;1.70;;;33.90;35.90;;;;;;4958168;28;20951;-54
2021/07/12 12:18:14;;;;;;;8.03;1.80;;;34.10;35.50;;;;;;4953807;28;20479;-48
2021/07/12 12:20:44;;;;;;;1.63;1.53;;;34.20;35.20;;;;;;4950444;28;20927;-51
2021/07/12 12:23:12;;;;;;;2.30;1.70;;;33.70;33.70;;;;;;4955455;28;20432;-52
2021/07/12 12:25:41;;;;;;;6.37;2.50;;;33.50;36.00;;;;;;4952527;28;20444;-52
2021/07/12 12:28:07;;;;;;;2.10;1.90;;;33.60;34.90;;;;;;4955809;28;20491;-49
2021/07/12 12:30:34;;;;;;;3.63;2.60;;;33.70;35.40;;;;;;4959039;28;20557;-50
2021/07/12 12:33:01;;;;;;;2.33;2.13;;;33.90;35.00;;;;;;4955011;28;20208;-48
2021/07/12 12:35:28;;;;;;;2.23;2.10;;;33.80;34.70;;;;;;4959377;28;20486;-48
2021/07/12 12:38:07;;;;;;;2.00;1.90;;;33.90;34.40;;;;;;4957866;28;20450;-51
2021/07/12 12:40:33;;;;;;;1.87;1.70;;;33.70;34.80;;;;;;4954190;28;20959;-52
2021/07/12 12:43:12;;;;;;;1.90;1.80;;;33.90;35.10;;;;;;4949975;29;20501;-51
2021/07/12 12:45:45;;;;;;;1.80;1.70;;;33.70;35.60;;;;;;4958261;28;20198;-50
2021/07/12 12:48:11;;;;;;;1.70;1.60;;;33.50;35.00;;;;;;4955468;28;20491;-53
2021/07/12 12:50:38;;;;;;;2.17;1.97;;;33.40;35.30;;;;;;4950240;28;20495;-48
2021/07/12 12:53:09;;;;;;;2.70;2.27;;;33.60;34.60;;;;;;4950040;29;20321;-52
2021/07/12 12:55:36;;;;;;;2.00;1.77;;;33.30;36.00;;;;;;4947996;29;20535;-52
2021/07/12 12:58:10;;;;;;;1.83;1.73;;;33.40;35.80;;;;;;4945397;28;20818;-50
2021/07/12 13:00:36;;;;;;;1.83;1.70;;;33.60;35.30;;;;;;4952470;29;20439;-48